sensor_id;sensor_type;location;lat;lon;timestamp;pressure;altitude;pressure_sealevel;temperature;humidity
13594;BME280;6449;47.666;9.160;2023-04-01T00:01:27;95976.78;;;8.43;100.00
13594;BME280;6449;47.666;9.160;2023-04-01T00:06:31;95978.75;;;8.50;100.00
13594;BME280;6449;47.666;9.160;2023-04-01T00:11:24;95989.84;;;8.43;100.00
13594;BME280;6449;47.666;9.160;2023-04-01T00:16:19;95988.88;;;8.32;100.00
13594;BME280;6449;47.666;9.160;2023-04-01T00:21:14;95991.19;;;8.26;100.00
13594;BME280;6449;47.666;9.160;2023-04-01T00:26:12;95991.38;;;8.34;100.00
13594;BME280;6449;47.666;9.160;2023-04-01T00:31:07;95983.81;;;8.20;100.00
13594;BME280;6449;47.666;9.160;2023-04-01T00:36:09;95985.94;;;7.94;100.00
13594;BME280;6449;47.666;9.160;2023-04-01T00:41:04;95977.72;;;7.98;100.00
13594;BME280;6449;47.666;9.160;2023-04-01T00:46:00;95987.22;;;7.99;100.00
13594;BME280;6449;47.666;9.160;2023-04-01T00:50:58;95993.31;;;7.88;100.00
13594;BME280;6449;47.666;9.160;2023-04-01T00:56:01;95988.34;;;7.74;100.00
13594;BME280;6449;47.666;9.160;2023-04-01T01:00:59;95974.22;;;7.77;100.00
13594;BME280;6449;47.666;9.160;2023-04-01T01:06:20;95976.22;;;7.84;100.00
13594;BME280;6449;47.666;9.160;2023-04-01T01:11:29;95967.00;;;7.69;100.00
13594;BME280;6449;47.666;9.160;2023-04-01T01:16:43;95964.41;;;7.69;100.00
13594;BME280;6449;47.666;9.160;2023-04-01T01:21:58;95960.25;;;7.78;100.00
13594;BME280;6449;47.666;9.160;2023-04-01T01:27:06;95949.56;;;7.70;100.00
13594;BME280;6449;47.666;9.160;2023-04-01T01:32:16;95944.13;;;7.73;100.00
13594;BME280;6449;47.666;9.160;2023-04-01T01:37:17;95936.38;;;7.82;100.00
13594;BME280;6449;47.666;9.160;2023-04-01T01:42:16;95931.28;;;7.81;100.00
13594;BME280;6449;47.666;9.160;2023-04-01T01:47:15;95928.03;;;8.00;100.00
13594;BME280;6449;47.666;9.160;2023-04-01T01:52:14;95927.19;;;7.99;100.00
13594;BME280;6449;47.666;9.160;2023-04-01T01:57:11;95918.16;;;8.03;100.00
13594;BME280;6449;47.666;9.160;2023-04-01T02:02:06;95903.66;;;7.78;100.00
13594;BME280;6449;47.666;9.160;2023-04-01T02:07:07;95910.22;;;7.73;100.00
13594;BME280;6449;47.666;9.160;2023-04-01T02:12:08;95907.06;;;7.90;100.00
13594;BME280;6449;47.666;9.160;2023-04-01T02:17:08;95896.31;;;7.83;100.00
13594;BME280;6449;47.666;9.160;2023-04-01T02:22:08;95905.31;;;7.79;100.00
13594;BME280;6449;47.666;9.160;2023-04-01T02:27:05;95902.34;;;7.84;100.00
13594;BME280;6449;47.666;9.160;2023-04-01T02:31:59;95913.38;;;7.76;100.00
13594;BME280;6449;47.666;9.160;2023-04-01T02:36:55;95916.91;;;7.86;100.00
13594;BME280;6449;47.666;9.160;2023-04-01T02:41:50;95911.97;;;7.72;100.00
13594;BME280;6449;47.666;9.160;2023-04-01T02:46:45;95908.16;;;7.76;100.00
13594;BME280;6449;47.666;9.160;2023-04-01T02:51:38;95899.50;;;7.76;100.00
13594;BME280;6449;47.666;9.160;2023-04-01T02:56:32;95907.78;;;7.81;100.00
13594;BME280;6449;47.666;9.160;2023-04-01T03:01:25;95903.16;;;7.84;100.00
13594;BME280;6449;47.666;9.160;2023-04-01T03:06:20;95909.63;;;7.69;100.00
13594;BME280;6449;47.666;9.160;2023-04-01T03:11:14;95917.81;;;7.65;100.00
13594;BME280;6449;47.666;9.160;2023-04-01T03:16:09;95917.94;;;7.63;100.00
13594;BME280;6449;47.666;9.160;2023-04-01T03:21:17;95926.72;;;7.62;100.00
13594;BME280;6449;47.666;9.160;2023-04-01T03:26:15;95937.38;;;7.59;100.00
13594;BME280;6449;47.666;9.160;2023-04-01T03:31:11;95927.06;;;7.69;100.00
13594;BME280;6449;47.666;9.160;2023-04-01T03:36:09;95933.94;;;7.58;100.00
13594;BME280;6449;47.666;9.160;2023-04-01T03:41:05;95932.84;;;7.72;100.00
13594;BME280;6449;47.666;9.160;2023-04-01T03:46:00;95933.56;;;7.74;100.00
13594;BME280;6449;47.666;9.160;2023-04-01T03:50:53;95938.16;;;7.82;100.00
13594;BME280;6449;47.666;9.160;2023-04-01T03:55:48;95931.91;;;7.73;100.00
13594;BME280;6449;47.666;9.160;2023-04-01T04:00:51;95942.06;;;7.76;100.00
13594;BME280;6449;47.666;9.160;2023-04-01T04:05:49;95936.41;;;7.71;100.00
13594;BME280;6449;47.666;9.160;2023-04-01T04:10:43;95956.81;;;7.66;100.00
13594;BME280;6449;47.666;9.160;2023-04-01T04:15:39;95946.38;;;7.66;100.00
13594;BME280;6449;47.666;9.160;2023-04-01T04:20:35;95951.50;;;7.56;100.00
13594;BME280;6449;47.666;9.160;2023-04-01T04:25:30;95953.50;;;7.64;100.00
13594;BME280;6449;47.666;9.160;2023-04-01T04:30:35;95955.16;;;7.65;100.00
13594;BME280;6449;47.666;9.160;2023-04-01T04:35:38;95961.09;;;7.56;100.00
13594;BME280;6449;47.666;9.160;2023-04-01T04:40:45;95973.44;;;7.54;100.00
13594;BME280;6449;47.666;9.160;2023-04-01T04:45:42;95991.91;;;7.73;100.00
13594;BME280;6449;47.666;9.160;2023-04-01T04:50:36;95986.34;;;7.55;100.00
13594;BME280;6449;47.666;9.160;2023-04-01T04:55:33;95964.78;;;7.53;100.00
13594;BME280;6449;47.666;9.160;2023-04-01T05:00:28;95971.19;;;7.38;100.00
13594;BME280;6449;47.666;9.160;2023-04-01T05:05:59;95959.31;;;7.45;100.00
13594;BME280;6449;47.666;9.160;2023-04-01T05:11:35;95962.06;;;7.32;100.00
13594;BME280;6449;47.666;9.160;2023-04-01T05:16:53;95947.13;;;7.34;100.00
13594;BME280;6449;47.666;9.160;2023-04-01T05:21:47;95952.81;;;7.28;100.00
13594;BME280;6449;47.666;9.160;2023-04-01T05:27:09;95962.06;;;7.32;100.00
13594;BME280;6449;47.666;9.160;2023-04-01T05:32:13;95945.81;;;7.29;100.00
13594;BME280;6449;47.666;9.160;2023-04-01T05:37:07;95955.19;;;7.31;100.00
13594;BME280;6449;47.666;9.160;2023-04-01T05:42:06;95953.06;;;7.48;100.00
13594;BME280;6449;47.666;9.160;2023-04-01T05:46:59;95954.00;;;7.58;100.00
13594;BME280;6449;47.666;9.160;2023-04-01T05:51:55;95976.38;;;7.60;100.00
13594;BME280;6449;47.666;9.160;2023-04-01T05:56:48;95971.53;;;7.56;100.00
13594;BME280;6449;47.666;9.160;2023-04-01T06:01:42;95976.03;;;7.65;100.00
13594;BME280;6449;47.666;9.160;2023-04-01T06:06:59;95970.94;;;7.64;100.00
13594;BME280;6449;47.666;9.160;2023-04-01T06:12:25;95962.28;;;7.63;100.00
13594;BME280;6449;47.666;9.160;2023-04-01T06:17:47;95987.63;;;7.72;100.00
13594;BME280;6449;47.666;9.160;2023-04-01T06:23:15;95990.94;;;7.85;100.00
13594;BME280;6449;47.666;9.160;2023-04-01T06:28:46;95968.38;;;7.96;100.00
13594;BME280;6449;47.666;9.160;2023-04-01T06:34:13;95969.47;;;8.14;100.00
13594;BME280;6449;47.666;9.160;2023-04-01T06:45:44;95986.50;;;8.40;100.00
13594;BME280;6449;47.666;9.160;2023-04-01T06:51:25;95983.72;;;8.53;100.00
13594;BME280;6449;47.666;9.160;2023-04-01T06:56:28;95997.41;;;8.46;100.00
13594;BME280;6449;47.666;9.160;2023-04-01T07:01:29;95978.94;;;8.58;100.00
13594;BME280;6449;47.666;9.160;2023-04-01T07:06:32;95969.00;;;8.73;100.00
13594;BME280;6449;47.666;9.160;2023-04-01T07:11:34;95990.22;;;8.80;100.00
13594;BME280;6449;47.666;9.160;2023-04-01T07:16:37;95980.09;;;8.86;100.00
13594;BME280;6449;47.666;9.160;2023-04-01T07:21:39;95984.03;;;9.02;100.00
13594;BME280;6449;47.666;9.160;2023-04-01T07:26:38;95971.41;;;9.07;100.00
13594;BME280;6449;47.666;9.160;2023-04-01T07:32:03;95977.94;;;9.22;100.00
13594;BME280;6449;47.666;9.160;2023-04-01T07:37:06;95992.81;;;9.22;100.00
13594;BME280;6449;47.666;9.160;2023-04-01T07:42:34;96004.53;;;9.27;100.00
13594;BME280;6449;47.666;9.160;2023-04-01T07:48:09;96006.31;;;9.27;100.00
13594;BME280;6449;47.666;9.160;2023-04-01T07:53:14;95984.06;;;9.32;100.00
13594;BME280;6449;47.666;9.160;2023-04-01T07:58:24;95992.72;;;9.33;100.00
13594;BME280;6449;47.666;9.160;2023-04-01T08:07:03;95992.09;;;9.50;100.00
13594;BME280;6449;47.666;9.160;2023-04-01T08:10:40;95990.22;;;9.62;100.00
13594;BME280;6449;47.666;9.160;2023-04-01T08:16:05;95998.19;;;9.60;100.00
13594;BME280;6449;47.666;9.160;2023-04-01T08:21:10;96000.81;;;9.60;100.00
13594;BME280;6449;47.666;9.160;2023-04-01T08:26:26;95993.19;;;9.48;100.00
13594;BME280;6449;47.666;9.160;2023-04-01T08:31:38;95988.56;;;9.30;100.00
13594;BME280;6449;47.666;9.160;2023-04-01T08:36:40;96014.50;;;9.12;100.00
13594;BME280;6449;47.666;9.160;2023-04-01T08:47:54;96012.97;;;9.10;100.00
13594;BME280;6449;47.666;9.160;2023-04-01T08:53:09;96018.31;;;9.08;100.00
13594;BME280;6449;47.666;9.160;2023-04-01T08:58:48;96012.97;;;9.10;100.00
13594;BME280;6449;47.666;9.160;2023-04-01T09:04:11;96016.22;;;9.02;100.00
13594;BME280;6449;47.666;9.160;2023-04-01T09:10:02;96010.69;;;8.96;100.00
13594;BME280;6449;47.666;9.160;2023-04-01T09:22:40;96028.19;;;8.84;100.00
13594;BME280;6449;47.666;9.160;2023-04-01T09:27:44;96016.44;;;8.89;100.00
13594;BME280;6449;47.666;9.160;2023-04-01T09:33:05;96009.97;;;8.93;100.00
13594;BME280;6449;47.666;9.160;2023-04-01T09:38:21;96008.25;;;9.04;100.00
13594;BME280;6449;47.666;9.160;2023-04-01T09:43:25;96010.63;;;9.07;100.00
13594;BME280;6449;47.666;9.160;2023-04-01T09:48:51;96018.16;;;9.00;100.00
13594;BME280;6449;47.666;9.160;2023-04-01T09:54:13;96011.31;;;9.09;100.00
13594;BME280;6449;47.666;9.160;2023-04-01T10:11:28;96015.94;;;9.26;100.00
13594;BME280;6449;47.666;9.160;2023-04-01T10:17:20;96007.47;;;9.34;100.00
13594;BME280;6449;47.666;9.160;2023-04-01T10:40:38;96013.00;;;9.81;100.00
13594;BME280;6449;47.666;9.160;2023-04-01T10:59:16;96018.16;;;10.11;100.00
13594;BME280;6449;47.666;9.160;2023-04-01T11:23:17;96025.81;;;10.53;100.00
13594;BME280;6449;47.666;9.160;2023-04-01T11:28:49;96029.16;;;10.55;100.00
13594;BME280;6449;47.666;9.160;2023-04-01T11:33:54;96029.00;;;10.57;100.00
13594;BME280;6449;47.666;9.160;2023-04-01T11:39:11;96028.59;;;10.61;100.00
13594;BME280;6449;47.666;9.160;2023-04-01T11:44:19;96019.19;;;10.59;100.00
13594;BME280;6449;47.666;9.160;2023-04-01T11:49:33;96026.38;;;10.47;100.00
13594;BME280;6449;47.666;9.160;2023-04-01T11:54:56;96055.06;;;10.68;100.00
13594;BME280;6449;47.666;9.160;2023-04-01T12:00:17;96035.19;;;10.75;100.00
13594;BME280;6449;47.666;9.160;2023-04-01T12:05:37;96028.00;;;10.96;100.00
13594;BME280;6449;47.666;9.160;2023-04-01T12:10:41;96057.56;;;10.98;100.00
13594;BME280;6449;47.666;9.160;2023-04-01T12:16:05;96044.53;;;11.16;100.00
13594;BME280;6449;47.666;9.160;2023-04-01T12:21:11;96061.94;;;11.27;100.00
13594;BME280;6449;47.666;9.160;2023-04-01T12:26:47;96062.81;;;11.08;100.00
13594;BME280;6449;47.666;9.160;2023-04-01T12:32:00;96079.09;;;10.92;100.00
13594;BME280;6449;47.666;9.160;2023-04-01T12:37:12;96084.47;;;10.91;100.00
13594;BME280;6449;47.666;9.160;2023-04-01T12:42:39;96093.44;;;10.49;100.00
13594;BME280;6449;47.666;9.160;2023-04-01T12:48:31;96074.13;;;10.60;100.00
13594;BME280;6449;47.666;9.160;2023-04-01T12:59:56;96074.53;;;10.94;100.00
13594;BME280;6449;47.666;9.160;2023-04-01T13:05:36;96069.69;;;10.80;100.00
13594;BME280;6449;47.666;9.160;2023-04-01T13:10:56;96064.16;;;10.54;100.00
13594;BME280;6449;47.666;9.160;2023-04-01T13:15:56;96052.97;;;10.42;100.00
13594;BME280;6449;47.666;9.160;2023-04-01T13:21:09;96052.44;;;10.48;100.00
13594;BME280;6449;47.666;9.160;2023-04-01T13:26:18;96051.63;;;10.58;100.00
13594;BME280;6449;47.666;9.160;2023-04-01T13:31:33;96053.16;;;10.51;100.00
13594;BME280;6449;47.666;9.160;2023-04-01T13:36:41;96055.88;;;10.49;100.00
13594;BME280;6449;47.666;9.160;2023-04-01T13:47:46;96060.06;;;10.61;100.00
13594;BME280;6449;47.666;9.160;2023-04-01T14:09:41;96070.25;;;10.64;100.00
13594;BME280;6449;47.666;9.160;2023-04-01T14:15:05;96067.75;;;10.53;100.00
13594;BME280;6449;47.666;9.160;2023-04-01T14:20:47;96060.84;;;10.42;100.00
13594;BME280;6449;47.666;9.160;2023-04-01T14:26:19;96013.97;;;10.30;100.00
13594;BME280;6449;47.666;9.160;2023-04-01T14:31:34;96010.59;;;10.18;100.00
13594;BME280;6449;47.666;9.160;2023-04-01T14:37:05;96004.84;;;10.24;100.00
13594;BME280;6449;47.666;9.160;2023-04-01T14:42:31;96009.47;;;10.11;100.00
13594;BME280;6449;47.666;9.160;2023-04-01T14:47:51;96021.91;;;10.18;100.00
13594;BME280;6449;47.666;9.160;2023-04-01T14:53:09;96039.34;;;10.29;100.00
13594;BME280;6449;47.666;9.160;2023-04-01T14:58:18;96044.22;;;10.13;100.00
13594;BME280;6449;47.666;9.160;2023-04-01T15:03:41;96061.50;;;10.25;100.00
13594;BME280;6449;47.666;9.160;2023-04-01T15:08:50;96059.34;;;10.49;100.00
13594;BME280;6449;47.666;9.160;2023-04-01T15:14:24;96061.28;;;10.47;100.00
13594;BME280;6449;47.666;9.160;2023-04-01T15:19:34;96082.53;;;10.44;100.00
13594;BME280;6449;47.666;9.160;2023-04-01T15:24:46;96067.31;;;10.38;100.00
13594;BME280;6449;47.666;9.160;2023-04-01T15:30:11;96086.19;;;10.32;100.00
13594;BME280;6449;47.666;9.160;2023-04-01T15:35:36;96088.56;;;10.05;100.00
13594;BME280;6449;47.666;9.160;2023-04-01T15:40:47;96073.44;;;10.08;100.00
13594;BME280;6449;47.666;9.160;2023-04-01T15:45:58;96072.19;;;10.03;100.00
13594;BME280;6449;47.666;9.160;2023-04-01T15:57:28;96047.78;;;10.12;100.00
13594;BME280;6449;47.666;9.160;2023-04-01T16:02:35;96046.31;;;10.19;100.00
13594;BME280;6449;47.666;9.160;2023-04-01T16:08:12;96044.97;;;10.25;100.00
13594;BME280;6449;47.666;9.160;2023-04-01T16:13:54;96061.75;;;10.22;100.00
13594;BME280;6449;47.666;9.160;2023-04-01T16:19:36;96066.03;;;10.23;100.00
13594;BME280;6449;47.666;9.160;2023-04-01T16:24:39;96077.38;;;10.23;100.00
13594;BME280;6449;47.666;9.160;2023-04-01T16:29:49;96079.72;;;10.27;100.00
13594;BME280;6449;47.666;9.160;2023-04-01T16:35:03;96075.53;;;10.14;100.00
13594;BME280;6449;47.666;9.160;2023-04-01T16:41:10;96082.31;;;10.27;100.00
13594;BME280;6449;47.666;9.160;2023-04-01T16:46:26;96089.03;;;10.19;100.00
13594;BME280;6449;47.666;9.160;2023-04-01T16:51:52;96094.94;;;10.12;100.00
13594;BME280;6449;47.666;9.160;2023-04-01T16:57:45;96098.94;;;10.16;100.00
13594;BME280;6449;47.666;9.160;2023-04-01T17:03:18;96106.22;;;10.03;100.00
13594;BME280;6449;47.666;9.160;2023-04-01T17:08:44;96099.91;;;10.15;100.00
13594;BME280;6449;47.666;9.160;2023-04-01T17:13:58;96098.50;;;10.11;100.00
13594;BME280;6449;47.666;9.160;2023-04-01T17:25:02;96104.22;;;9.85;100.00
13594;BME280;6449;47.666;9.160;2023-04-01T17:30:24;96109.97;;;9.79;100.00
13594;BME280;6449;47.666;9.160;2023-04-01T17:35:37;96115.47;;;9.76;100.00
13594;BME280;6449;47.666;9.160;2023-04-01T17:52:29;96117.47;;;9.42;100.00
13594;BME280;6449;47.666;9.160;2023-04-01T17:57:50;96105.34;;;9.62;100.00
13594;BME280;6449;47.666;9.160;2023-04-01T18:03:04;96119.47;;;9.50;100.00
13594;BME280;6449;47.666;9.160;2023-04-01T18:15:10;96137.94;;;9.48;100.00
13594;BME280;6449;47.666;9.160;2023-04-01T18:21:15;96145.88;;;9.47;100.00
13594;BME280;6449;47.666;9.160;2023-04-01T18:27:16;96134.34;;;9.28;100.00
13594;BME280;6449;47.666;9.160;2023-04-01T18:39:18;96133.13;;;9.11;100.00
13594;BME280;6449;47.666;9.160;2023-04-01T18:57:38;96156.66;;;9.11;100.00
13594;BME280;6449;47.666;9.160;2023-04-01T19:09:32;96176.31;;;8.95;100.00
13594;BME280;6449;47.666;9.160;2023-04-01T19:15:01;96182.78;;;8.79;100.00
13594;BME280;6449;47.666;9.160;2023-04-01T19:20:18;96178.03;;;8.84;100.00
13594;BME280;6449;47.666;9.160;2023-04-01T19:25:29;96185.34;;;9.02;100.00
13594;BME280;6449;47.666;9.160;2023-04-01T19:30:53;96189.84;;;9.00;100.00
13594;BME280;6449;47.666;9.160;2023-04-01T19:36:06;96199.97;;;8.93;100.00
13594;BME280;6449;47.666;9.160;2023-04-01T19:41:37;96203.22;;;8.85;100.00
13594;BME280;6449;47.666;9.160;2023-04-01T19:46:39;96196.31;;;8.84;100.00
13594;BME280;6449;47.666;9.160;2023-04-01T19:52:02;96194.88;;;8.91;100.00
13594;BME280;6449;47.666;9.160;2023-04-01T19:57:12;96203.06;;;8.87;100.00
13594;BME280;6449;47.666;9.160;2023-04-01T20:02:39;96203.44;;;8.82;100.00
13594;BME280;6449;47.666;9.160;2023-04-01T20:07:44;96206.28;;;8.90;100.00
13594;BME280;6449;47.666;9.160;2023-04-01T20:12:50;96222.22;;;8.76;100.00
13594;BME280;6449;47.666;9.160;2023-04-01T20:17:53;96219.38;;;8.79;100.00
13594;BME280;6449;47.666;9.160;2023-04-01T20:23:26;96215.09;;;8.67;100.00
13594;BME280;6449;47.666;9.160;2023-04-01T20:28:32;96214.75;;;8.72;100.00
13594;BME280;6449;47.666;9.160;2023-04-01T20:34:04;96217.22;;;8.73;100.00
13594;BME280;6449;47.666;9.160;2023-04-01T20:39:39;96222.69;;;8.81;100.00
13594;BME280;6449;47.666;9.160;2023-04-01T20:44:55;96223.56;;;8.59;100.00
13594;BME280;6449;47.666;9.160;2023-04-01T20:50:06;96227.81;;;8.72;100.00
13594;BME280;6449;47.666;9.160;2023-04-01T20:55:58;96237.69;;;8.57;100.00
13594;BME280;6449;47.666;9.160;2023-04-01T21:01:44;96243.63;;;8.70;100.00
13594;BME280;6449;47.666;9.160;2023-04-01T21:07:32;96248.59;;;8.62;100.00
13594;BME280;6449;47.666;9.160;2023-04-01T21:12:56;96250.38;;;8.61;100.00
13594;BME280;6449;47.666;9.160;2023-04-01T21:18:50;96256.94;;;8.56;100.00
13594;BME280;6449;47.666;9.160;2023-04-01T21:29:47;96269.53;;;8.39;100.00
13594;BME280;6449;47.666;9.160;2023-04-01T21:34:58;96260.03;;;8.50;100.00
13594;BME280;6449;47.666;9.160;2023-04-01T21:40:47;96252.06;;;8.40;100.00
13594;BME280;6449;47.666;9.160;2023-04-01T21:47:15;96261.88;;;8.25;100.00
13594;BME280;6449;47.666;9.160;2023-04-01T22:05:21;96282.41;;;8.19;100.00
13594;BME280;6449;47.666;9.160;2023-04-01T22:10:56;96282.41;;;8.07;100.00
13594;BME280;6449;47.666;9.160;2023-04-01T22:16:32;96279.63;;;7.98;100.00
13594;BME280;6449;47.666;9.160;2023-04-01T22:40:21;96311.66;;;7.88;100.00
13594;BME280;6449;47.666;9.160;2023-04-01T22:51:57;96322.44;;;7.84;100.00
13594;BME280;6449;47.666;9.160;2023-04-01T22:57:50;96336.34;;;7.96;100.00
13594;BME280;6449;47.666;9.160;2023-04-01T23:03:11;96335.91;;;8.13;100.00
13594;BME280;6449;47.666;9.160;2023-04-01T23:08:54;96342.81;;;8.14;100.00
13594;BME280;6449;47.666;9.160;2023-04-01T23:14:21;96349.81;;;8.25;100.00
13594;BME280;6449;47.666;9.160;2023-04-01T23:19:24;96351.50;;;8.26;100.00
13594;BME280;6449;47.666;9.160;2023-04-01T23:24:52;96354.19;;;8.13;100.00
13594;BME280;6449;47.666;9.160;2023-04-01T23:35:47;96336.03;;;8.00;100.00
13594;BME280;6449;47.666;9.160;2023-04-01T23:41:07;96348.44;;;7.97;100.00
13594;BME280;6449;47.666;9.160;2023-04-01T23:46:33;96350.59;;;8.03;100.00
13594;BME280;6449;47.666;9.160;2023-04-01T23:51:40;96352.34;;;7.91;100.00
13594;BME280;6449;47.666;9.160;2023-04-01T23:57:24;96351.72;;;7.87;100.00
